Atlanta, Idaho
Current Conditions -  °F | °C
As of 5:47 PM on Sunday 23 Nov 2014 (Local Time) from KSUN Reporting Station
Scattered Clouds Scattered Clouds  
Wind Chill: 23°   Ceiling: Unl
Heat Index: 30°   Visibility: 10mi
Dew Point: 21°   Wind: 7mph
Humidity: 69%   Direction: 180°S
Pressure: 30.13"   Gusts: NA
Location:  43.8°N, 115.13°W
Report Text: KSUN 240047Z 18006KT 10SM SCT100 SCT140 M01/M06 A3013
Loading
Personal Weather Stations






























Interactive Weather Map New forecast layout! Learn more

10-Day Weather Forecast

Advertisements
Track Severe Weather on mobile